createdAt,value
2022-08-03T00:01:49.859Z,52.14
2022-08-03T00:04:16.581Z,52.40
2022-08-03T00:06:43.254Z,52.31
2022-08-03T00:09:10.103Z,52.75
2022-08-03T00:11:37.197Z,52.15
2022-08-03T00:14:07.184Z,52.36
2022-08-03T00:16:34.202Z,51.92
2022-08-03T00:19:01.384Z,52.66
2022-08-03T00:21:28.829Z,51.78
2022-08-03T00:23:55.592Z,52.04
2022-08-03T00:26:22.222Z,51.93
2022-08-03T00:28:49.686Z,52.32
2022-08-03T00:31:16.392Z,52.19
2022-08-03T00:33:59.948Z,51.60
2022-08-03T00:36:29.586Z,51.99
2022-08-03T00:38:56.492Z,51.71
2022-08-03T00:41:23.186Z,52.07
2022-08-03T00:43:49.907Z,51.85
2022-08-03T00:46:21.337Z,51.77
2022-08-03T00:48:49.919Z,51.97
2022-08-03T00:51:16.581Z,52.19
2022-08-03T00:53:43.525Z,51.90
2022-08-03T00:56:14.020Z,51.72
2022-08-03T00:58:40.666Z,52.01
2022-08-03T01:01:07.570Z,51.92
2022-08-03T01:03:34.529Z,51.77
2022-08-03T01:06:10.723Z,51.63
2022-08-03T01:08:46.708Z,51.92
2022-08-03T01:12:01.271Z,51.34
2022-08-03T01:14:30.497Z,51.40
2022-08-03T01:17:06.976Z,51.35
2022-08-03T01:19:42.427Z,51.23
2022-08-03T01:22:40.899Z,51.59
2022-08-03T01:25:19.563Z,51.83
2022-08-03T01:28:03.598Z,51.88
2022-08-03T01:30:32.368Z,51.34
2022-08-03T01:33:05.350Z,52.11
2022-08-03T01:35:42.384Z,52.11
2022-08-03T01:38:15.635Z,52.06
2022-08-03T01:40:44.509Z,52.13
2022-08-03T01:43:13.456Z,51.67
2022-08-03T01:45:41.230Z,51.79
2022-08-03T01:48:08.298Z,52.24
2022-08-03T01:50:35.464Z,52.30
2022-08-03T01:53:02.257Z,51.79
2022-08-03T01:55:32.046Z,52.19
2022-08-03T01:58:06.006Z,51.94
2022-08-03T02:00:36.220Z,52.46
2022-08-03T02:03:05.675Z,51.71
2022-08-03T02:05:32.954Z,52.18
2022-08-03T02:08:00.841Z,52.11
2022-08-03T02:10:35.378Z,52.20
2022-08-03T02:13:04.343Z,52.05
2022-08-03T02:15:32.971Z,51.57
2022-08-03T02:18:00.478Z,51.73
2022-08-03T02:20:27.632Z,52.25
2022-08-03T02:22:54.489Z,52.46
2022-08-03T02:25:21.317Z,51.57
2022-08-03T02:27:53.256Z,51.53
2022-08-03T02:30:20.766Z,51.88
2022-08-03T02:32:51.870Z,51.45
2022-08-03T02:35:19.386Z,51.88
2022-08-03T02:37:50.173Z,51.26
2022-08-03T02:40:18.490Z,51.90
2022-08-03T02:42:45.819Z,51.20
2022-08-03T02:45:14.027Z,52.04
2022-08-03T02:47:54.329Z,51.70
2022-08-03T02:50:23.284Z,51.63
2022-08-03T02:52:51.483Z,51.51
2022-08-03T02:55:20.476Z,51.98
2022-08-03T02:57:47.654Z,51.56
2022-08-03T03:00:19.336Z,52.22
2022-08-03T03:02:57.434Z,52.26
2022-08-03T03:05:55.047Z,52.04
2022-08-03T03:08:18.718Z,51.68
2022-08-03T03:10:47.929Z,51.82
2022-08-03T03:13:15.914Z,52.09
2022-08-03T03:15:43.894Z,51.94
2022-08-03T03:18:10.973Z,51.65
2022-08-03T03:20:38.806Z,51.36
2022-08-03T03:23:05.560Z,51.47
2022-08-03T03:25:33.503Z,51.56
2022-08-03T03:28:01.028Z,51.69
2022-08-03T03:30:28.091Z,51.15
2022-08-03T03:32:54.947Z,51.54
2022-08-03T03:35:21.624Z,51.34
2022-08-03T03:37:48.279Z,51.47
2022-08-03T03:40:15.225Z,51.53
2022-08-03T03:42:41.964Z,51.67
2022-08-03T03:45:09.105Z,51.20
2022-08-03T03:47:36.012Z,51.87
2022-08-03T03:50:06.954Z,51.61
2022-08-03T03:52:33.988Z,51.97
2022-08-03T03:55:01.567Z,51.68
2022-08-03T03:57:29.296Z,51.94
2022-08-03T03:59:55.984Z,52.00
2022-08-03T04:02:22.717Z,51.72
2022-08-03T04:05:08.048Z,51.64
2022-08-03T04:08:03.472Z,51.43
2022-08-03T04:10:50.324Z,51.66
2022-08-03T04:13:17.653Z,51.89
2022-08-03T04:15:45.800Z,51.57
2022-08-03T04:18:14.174Z,51.86
2022-08-03T04:20:44.922Z,52.05
2022-08-03T04:23:16.859Z,51.81
2022-08-03T04:25:44.088Z,52.42
2022-08-03T04:28:30.140Z,52.50
2022-08-03T04:30:58.242Z,52.28
2022-08-03T04:33:29.573Z,52.13
2022-08-03T04:36:02.669Z,51.76
2022-08-03T04:38:37.559Z,51.51
2022-08-03T04:41:05.073Z,51.38
2022-08-03T04:43:33.129Z,51.76
2022-08-03T04:46:00.982Z,52.02
2022-08-03T04:48:27.962Z,51.77
2022-08-03T04:50:54.791Z,51.60
2022-08-03T04:53:21.720Z,52.04
2022-08-03T04:55:48.350Z,52.34
2022-08-03T04:58:15.002Z,51.75
2022-08-03T05:00:42.365Z,51.68
2022-08-03T05:03:20.048Z,52.20
2022-08-03T05:06:01.894Z,52.71
2022-08-03T05:08:45.913Z,53.01
2022-08-03T05:11:14.135Z,52.84
2022-08-03T05:13:40.750Z,52.18
2022-08-03T05:16:07.400Z,52.09
2022-08-03T05:18:34.065Z,53.08
2022-08-03T05:21:00.724Z,52.87
2022-08-03T05:23:27.642Z,52.56
2022-08-03T05:25:54.241Z,52.23
2022-08-03T05:28:20.828Z,52.45
2022-08-03T05:30:47.498Z,52.88
2022-08-03T05:33:14.320Z,52.53
2022-08-03T05:35:57.546Z,52.89
2022-08-03T05:38:33.206Z,53.24
2022-08-03T05:41:22.399Z,52.76
2022-08-03T05:43:54.111Z,53.35
2022-08-03T05:46:24.506Z,53.07
2022-08-03T05:48:51.254Z,53.32
2022-08-03T05:51:18.225Z,53.67
2022-08-03T05:53:45.010Z,53.63
2022-08-03T05:56:13.714Z,54.14
2022-08-03T05:58:48.390Z,54.20
2022-08-03T06:01:16.761Z,54.46
2022-08-03T06:03:43.813Z,55.58
2022-08-03T06:06:11.595Z,55.64
2022-08-03T06:08:38.698Z,56.07
2022-08-03T06:11:05.342Z,56.17
2022-08-03T06:13:32.298Z,56.77
2022-08-03T06:15:59.001Z,56.62
2022-08-03T06:18:25.779Z,56.11
2022-08-03T06:20:52.986Z,55.67
2022-08-03T06:23:20.030Z,55.17
2022-08-03T06:25:46.825Z,54.91
2022-08-03T06:28:42.404Z,55.24
2022-08-03T06:31:02.704Z,54.74
2022-08-03T06:34:30.429Z,54.68
2022-08-03T06:36:16.203Z,54.64
2022-08-03T06:38:42.862Z,55.03
2022-08-03T06:41:09.439Z,54.90
2022-08-03T06:43:38.002Z,54.91
2022-08-03T06:46:24.206Z,54.83
2022-08-03T06:48:50.891Z,54.65
2022-08-03T06:51:17.547Z,54.75
2022-08-03T06:53:44.155Z,54.29
2022-08-03T06:56:11.183Z,54.60
2022-08-03T06:58:37.815Z,54.49
2022-08-03T07:01:04.537Z,54.83
2022-08-03T07:03:31.214Z,54.75
2022-08-03T07:05:57.900Z,55.07
2022-08-03T07:08:33.522Z,54.58
2022-08-03T07:11:01.075Z,54.94
2022-08-03T07:13:27.832Z,55.12
2022-08-03T07:15:56.109Z,54.55
2022-08-03T07:18:29.087Z,54.85
2022-08-03T07:20:57.776Z,54.67
2022-08-03T07:23:25.485Z,54.61
2022-08-03T07:25:52.204Z,54.69
2022-08-03T07:28:18.948Z,54.93
2022-08-03T07:30:45.668Z,54.95
2022-08-03T07:33:12.505Z,54.90
2022-08-03T07:35:39.342Z,54.72
2022-08-03T07:38:06.017Z,55.11
2022-08-03T07:40:32.609Z,55.14
2022-08-03T07:43:00.195Z,54.93
2022-08-03T07:45:27.022Z,55.32
2022-08-03T07:47:54.242Z,55.14
2022-08-03T07:50:21.395Z,56.13
2022-08-03T07:52:48.401Z,55.77
2022-08-03T07:55:16.201Z,55.73
2022-08-03T07:57:42.910Z,55.96
2022-08-03T08:00:17.763Z,56.31
2022-08-03T08:02:44.562Z,55.58
2022-08-03T08:05:12.575Z,56.02
2022-08-03T08:07:39.980Z,55.82
2022-08-03T08:10:07.963Z,56.98
2022-08-03T08:12:34.633Z,56.48
2022-08-03T08:15:01.583Z,56.62
2022-08-03T08:17:28.228Z,56.35
2022-08-03T08:19:54.948Z,55.92
2022-08-03T08:22:29.725Z,55.77
2022-08-03T08:24:56.988Z,56.10
2022-08-03T08:27:23.784Z,55.99
2022-08-03T08:29:52.627Z,56.08
2022-08-03T08:32:21.964Z,55.53
2022-08-03T08:34:48.604Z,55.85
2022-08-03T08:37:15.246Z,55.83
2022-08-03T08:39:41.853Z,55.87
2022-08-03T08:42:10.249Z,55.96
2022-08-03T08:44:37.043Z,56.00
2022-08-03T08:47:04.508Z,55.76
2022-08-03T08:49:33.022Z,55.63
2022-08-03T08:52:01.187Z,55.45
2022-08-03T08:54:29.871Z,55.78
2022-08-03T08:56:57.529Z,55.44
2022-08-03T08:59:24.489Z,55.78
2022-08-03T09:01:51.108Z,56.11
2022-08-03T09:04:17.938Z,55.74
2022-08-03T09:06:58.641Z,55.77
2022-08-03T09:10:12.146Z,55.26
2022-08-03T09:12:40.626Z,55.25
2022-08-03T09:15:17.730Z,55.33
2022-08-03T09:17:48.876Z,55.10
2022-08-03T09:20:18.639Z,54.54
2022-08-03T09:23:51.794Z,54.32
2022-08-03T09:26:01.703Z,54.00
2022-08-03T09:29:00.569Z,53.90
2022-08-03T09:31:36.373Z,53.74
2022-08-03T09:34:08.269Z,53.81
2022-08-03T09:36:46.599Z,53.20
2022-08-03T09:39:18.371Z,53.14
2022-08-03T09:41:47.222Z,52.76
2022-08-03T09:44:24.618Z,53.05
2022-08-03T09:46:56.711Z,52.72
2022-08-03T09:49:24.458Z,52.64
2022-08-03T09:52:37.945Z,52.00
2022-08-03T09:54:38.543Z,51.88
2022-08-03T09:57:05.277Z,51.70
2022-08-03T09:59:32.912Z,51.83
2022-08-03T10:02:00.668Z,51.80
2022-08-03T10:04:27.552Z,51.79
2022-08-03T10:07:09.269Z,51.48
2022-08-03T10:09:37.157Z,51.40
2022-08-03T10:12:12.308Z,51.25
2022-08-03T10:14:40.606Z,50.94
2022-08-03T10:17:07.742Z,50.91
2022-08-03T10:19:34.467Z,50.68
2022-08-03T10:22:10.677Z,51.27
2022-08-03T10:24:38.000Z,50.49
2022-08-03T10:27:07.466Z,50.92
2022-08-03T10:29:39.040Z,50.50
2022-08-03T10:32:19.541Z,50.74
2022-08-03T10:34:47.129Z,50.88
2022-08-03T10:37:16.443Z,50.25
2022-08-03T10:39:53.452Z,50.56
2022-08-03T10:42:27.264Z,50.50
2022-08-03T10:45:10.117Z,50.42
2022-08-03T10:47:36.978Z,50.38
2022-08-03T10:50:04.567Z,50.48
2022-08-03T10:52:31.899Z,50.77
2022-08-03T10:55:19.238Z,50.65
2022-08-03T10:57:58.387Z,50.62
2022-08-03T11:00:27.102Z,50.86
2022-08-03T11:03:08.891Z,50.79
2022-08-03T11:05:46.939Z,50.42
2022-08-03T11:08:25.018Z,50.88
2022-08-03T11:10:55.207Z,50.66
2022-08-03T11:13:24.610Z,50.86
2022-08-03T11:15:54.318Z,50.92
2022-08-03T11:18:29.266Z,51.03
2022-08-03T11:20:57.924Z,50.66
2022-08-03T11:24:05.017Z,50.94
2022-08-03T11:26:28.819Z,50.92
2022-08-03T11:29:29.293Z,50.80
2022-08-03T11:31:56.126Z,50.92
2022-08-03T11:34:24.461Z,50.77
2022-08-03T11:37:21.449Z,50.91
2022-08-03T11:39:50.484Z,50.88
2022-08-03T11:42:23.291Z,50.84
2022-08-03T11:44:50.956Z,50.60
2022-08-03T11:47:18.384Z,51.15
2022-08-03T11:49:49.141Z,50.65
2022-08-03T11:52:17.148Z,50.75
2022-08-03T11:54:44.289Z,50.78
2022-08-03T11:57:10.892Z,50.72
2022-08-03T11:59:38.802Z,50.92
2022-08-03T12:02:13.368Z,50.91
2022-08-03T12:05:02.519Z,50.93
2022-08-03T12:08:03.665Z,50.86
2022-08-03T12:10:16.835Z,50.84
2022-08-03T12:12:46.597Z,50.71
2022-08-03T12:15:14.674Z,51.08
2022-08-03T12:17:41.757Z,51.07
2022-08-03T12:20:10.332Z,51.18
2022-08-03T12:22:40.745Z,50.96
2022-08-03T12:25:08.776Z,50.95
2022-08-03T12:27:36.081Z,50.82
2022-08-03T12:30:04.180Z,50.81
2022-08-03T12:32:31.497Z,50.78
2022-08-03T12:35:00.863Z,50.94
2022-08-03T12:37:28.621Z,50.63
2022-08-03T12:40:01.329Z,50.55
2022-08-03T12:42:38.480Z,50.06
2022-08-03T12:45:24.796Z,49.87
2022-08-03T12:47:52.225Z,49.84
2022-08-03T12:50:35.563Z,49.23
2022-08-03T12:53:05.319Z,49.48
2022-08-03T12:55:57.708Z,49.21
2022-08-03T12:58:35.541Z,49.00
2022-08-03T13:01:09.900Z,48.78
2022-08-03T13:03:42.200Z,48.81
2022-08-03T13:06:16.928Z,48.35
2022-08-03T13:08:44.447Z,48.59
2022-08-03T13:11:50.568Z,48.42
2022-08-03T13:14:13.453Z,48.48
2022-08-03T13:16:43.588Z,48.22
2022-08-03T13:19:15.492Z,48.37
2022-08-03T13:22:01.689Z,48.31
2022-08-03T13:24:30.460Z,48.19
2022-08-03T13:26:58.029Z,48.43
2022-08-03T13:29:24.667Z,48.28
2022-08-03T13:31:51.645Z,48.39
2022-08-03T13:34:23.084Z,48.54
2022-08-03T13:37:08.488Z,48.44
2022-08-03T13:39:57.665Z,48.22
2022-08-03T13:42:22.919Z,48.00
2022-08-03T13:44:49.561Z,48.29
2022-08-03T13:47:16.274Z,48.46
2022-08-03T13:49:42.941Z,48.32
2022-08-03T13:52:27.667Z,48.12
2022-08-03T13:54:54.360Z,48.19
2022-08-03T13:58:05.941Z,48.30
2022-08-03T14:00:08.636Z,48.28
2022-08-03T14:02:35.405Z,48.61
2022-08-03T14:05:02.084Z,48.50
2022-08-03T14:07:28.713Z,48.16
2022-08-03T14:09:55.327Z,48.18
2022-08-03T14:12:21.912Z,48.18
2022-08-03T14:14:48.549Z,47.81
2022-08-03T14:17:16.435Z,48.13
2022-08-03T14:19:53.138Z,47.85
2022-08-03T14:22:21.352Z,47.92
2022-08-03T14:24:49.412Z,47.96
2022-08-03T14:27:16.573Z,47.90
2022-08-03T14:29:43.214Z,47.60
2022-08-03T14:32:13.279Z,47.75
2022-08-03T14:34:41.131Z,47.34
2022-08-03T14:37:07.941Z,47.35
2022-08-03T14:42:21.609Z,47.52
2022-08-03T14:44:48.279Z,47.63
2022-08-03T14:47:15.301Z,47.39
2022-08-03T14:50:30.062Z,47.44
2022-08-03T14:52:28.966Z,47.61
2022-08-03T14:54:55.610Z,47.08
2022-08-03T14:57:22.486Z,47.31
2022-08-03T14:59:57.100Z,47.78
2022-08-03T15:02:25.344Z,47.25
2022-08-03T15:04:52.514Z,47.27
2022-08-03T15:07:20.488Z,47.36
2022-08-03T15:09:47.519Z,46.91
2022-08-03T15:12:14.281Z,46.89
2022-08-03T15:14:40.944Z,47.29
2022-08-03T15:17:08.082Z,46.72
2022-08-03T15:20:03.191Z,46.97
2022-08-03T15:22:25.391Z,46.75
2022-08-03T15:26:03.757Z,46.68
2022-08-03T15:28:03.674Z,46.88
2022-08-03T15:30:35.104Z,46.50
2022-08-03T15:33:02.026Z,46.18
2022-08-03T15:35:28.974Z,47.16
2022-08-03T15:37:55.629Z,46.62
2022-08-03T15:40:22.366Z,46.76
2022-08-03T15:42:49.028Z,46.61
2022-08-03T15:45:17.776Z,46.79
2022-08-03T15:47:47.723Z,46.76
2022-08-03T15:50:14.415Z,46.27
2022-08-03T15:52:41.014Z,46.52
2022-08-03T15:55:08.430Z,46.42
2022-08-03T15:57:35.054Z,46.49
2022-08-03T16:00:33.393Z,46.51
2022-08-03T16:03:00.843Z,46.54
2022-08-03T16:05:27.607Z,46.55
2022-08-03T16:08:03.194Z,46.70
2022-08-03T16:10:31.915Z,47.02
2022-08-03T16:12:59.947Z,46.79
2022-08-03T16:15:27.050Z,46.78
2022-08-03T16:17:53.684Z,46.73
2022-08-03T16:20:30.748Z,46.90
2022-08-03T16:23:01.540Z,46.87
2022-08-03T16:25:35.813Z,47.50
2022-08-03T16:28:08.194Z,47.06
2022-08-03T16:30:40.485Z,47.26
2022-08-03T16:33:07.142Z,47.44
2022-08-03T16:35:33.846Z,47.31
2022-08-03T16:38:00.450Z,46.94
2022-08-03T16:40:27.377Z,46.89
2022-08-03T16:42:54.069Z,47.28
2022-08-03T16:45:21.058Z,46.89
2022-08-03T16:47:47.679Z,47.29
2022-08-03T16:50:27.994Z,47.56
2022-08-03T16:52:55.052Z,46.81
2022-08-03T16:55:43.439Z,47.24
2022-08-03T16:58:08.464Z,47.44
2022-08-03T17:00:41.195Z,47.24
2022-08-03T17:03:18.755Z,47.81
2022-08-03T17:05:49.803Z,47.26
2022-08-03T17:08:26.243Z,47.13
2022-08-03T17:10:54.681Z,47.52
2022-08-03T17:13:21.777Z,47.57
2022-08-03T17:16:00.678Z,47.44
2022-08-03T17:18:32.585Z,47.51
2022-08-03T17:21:03.397Z,47.72
2022-08-03T17:23:54.955Z,47.55
2022-08-03T17:26:23.210Z,47.78
2022-08-03T17:29:02.690Z,47.50
2022-08-03T17:31:48.597Z,47.66
2022-08-03T17:34:16.678Z,48.08
2022-08-03T17:39:57.067Z,47.98
2022-08-03T17:42:30.214Z,48.30
2022-08-03T17:45:02.529Z,48.33
2022-08-03T17:47:42.248Z,48.20
2022-08-03T17:50:25.100Z,48.23
2022-08-03T17:52:56.226Z,48.06
2022-08-03T17:55:55.631Z,48.28
2022-08-03T17:58:32.201Z,47.94
2022-08-03T18:02:01.956Z,48.24
2022-08-03T18:04:30.302Z,47.82
2022-08-03T18:06:59.767Z,47.81
2022-08-03T18:10:04.694Z,48.39
2022-08-03T18:12:26.293Z,48.07
2022-08-03T18:15:01.594Z,48.22
2022-08-03T18:17:55.736Z,48.02
2022-08-03T18:20:34.174Z,48.19
2022-08-03T18:23:05.818Z,47.82
2022-08-03T18:25:44.928Z,48.27
2022-08-03T18:28:14.035Z,48.26
2022-08-03T18:30:53.583Z,48.02
2022-08-03T18:34:17.194Z,48.25
2022-08-03T18:36:17.415Z,48.33
2022-08-03T18:38:49.317Z,48.01
2022-08-03T18:41:22.056Z,48.00
2022-08-03T18:44:08.966Z,48.16
2022-08-03T18:47:18.419Z,48.36
2022-08-03T18:49:53.085Z,48.56
2022-08-03T18:52:37.337Z,48.62
2022-08-03T18:55:35.461Z,48.47
2022-08-03T18:58:18.255Z,48.49
2022-08-03T19:01:00.848Z,48.77
2022-08-03T19:03:41.497Z,48.79
2022-08-03T19:06:19.145Z,48.99
2022-08-03T19:08:48.633Z,48.72
2022-08-03T19:11:27.818Z,49.12
2022-08-03T19:13:56.888Z,49.26
2022-08-03T19:16:38.815Z,49.37
2022-08-03T19:19:10.564Z,49.27
2022-08-03T19:21:41.448Z,49.32
2022-08-03T19:24:10.073Z,49.69
2022-08-03T19:26:39.397Z,49.36
2022-08-03T19:29:11.364Z,49.52
2022-08-03T19:31:58.892Z,49.84
2022-08-03T19:34:28.797Z,49.60
2022-08-03T19:36:58.372Z,49.58
2022-08-03T19:39:25.847Z,49.85
2022-08-03T19:41:55.716Z,49.59
2022-08-03T19:44:30.750Z,49.82
2022-08-03T19:47:31.903Z,49.63
2022-08-03T19:50:13.733Z,49.90
2022-08-03T19:52:43.826Z,50.13
2022-08-03T19:55:12.106Z,50.05
2022-08-03T19:57:41.209Z,49.92
2022-08-03T20:00:12.344Z,49.87
2022-08-03T20:02:41.359Z,49.86
2022-08-03T20:05:14.850Z,50.14
2022-08-03T20:07:47.596Z,50.23
2022-08-03T20:10:16.642Z,50.40
2022-08-03T20:12:44.778Z,50.34
2022-08-03T20:15:11.613Z,50.49
2022-08-03T20:17:56.062Z,50.17
2022-08-03T20:20:36.020Z,50.21
2022-08-03T20:23:22.787Z,50.04
2022-08-03T20:25:58.660Z,50.04
2022-08-03T20:28:35.617Z,50.08
2022-08-03T20:31:18.188Z,49.75
2022-08-03T20:33:46.785Z,49.82
2022-08-03T20:36:17.846Z,49.83
2022-08-03T20:38:47.223Z,49.78
2022-08-03T20:41:15.488Z,50.03
2022-08-03T20:43:42.181Z,50.08
2022-08-03T20:46:31.093Z,49.92
2022-08-03T20:48:57.244Z,49.67
2022-08-03T20:51:50.350Z,49.51
2022-08-03T20:54:23.136Z,49.38
2022-08-03T20:56:57.724Z,49.44
2022-08-03T20:59:28.818Z,49.35
2022-08-03T21:01:57.102Z,49.43
2022-08-03T21:04:24.096Z,49.62
2022-08-03T21:06:57.344Z,49.76
2022-08-03T21:09:39.835Z,50.02
2022-08-03T21:12:12.997Z,49.67
2022-08-03T21:15:04.796Z,49.58
2022-08-03T21:17:41.060Z,49.53
2022-08-03T21:20:12.304Z,49.33
2022-08-03T21:22:40.846Z,49.59
2022-08-03T21:25:09.350Z,49.35
2022-08-03T21:27:36.652Z,49.48
2022-08-03T21:30:07.108Z,49.11
2022-08-03T21:32:33.994Z,49.57
2022-08-03T21:35:01.303Z,49.05
2022-08-03T21:37:29.111Z,49.35
2022-08-03T21:39:56.475Z,49.20
2022-08-03T21:42:23.895Z,49.14
2022-08-03T21:44:54.045Z,49.34
2022-08-03T21:47:24.822Z,49.15
2022-08-03T21:50:08.341Z,49.15
2022-08-03T21:52:41.171Z,49.30
2022-08-03T21:55:08.209Z,49.25
2022-08-03T21:57:38.391Z,49.19
2022-08-03T22:00:19.260Z,49.07
2022-08-03T22:02:53.179Z,49.25
2022-08-03T22:05:28.126Z,49.26
2022-08-03T22:08:08.532Z,49.32
2022-08-03T22:10:35.578Z,49.42
2022-08-03T22:13:02.149Z,49.43
2022-08-03T22:15:28.785Z,49.58
2022-08-03T22:17:57.134Z,49.67
2022-08-03T22:20:24.911Z,49.95
2022-08-03T22:22:55.847Z,49.42
2022-08-03T22:25:27.376Z,49.47
2022-08-03T22:27:54.254Z,49.74
2022-08-03T22:30:20.929Z,49.60
2022-08-03T22:32:50.128Z,49.42
2022-08-03T22:35:18.521Z,49.54
2022-08-03T22:37:46.049Z,49.20
2022-08-03T22:40:15.600Z,49.83
2022-08-03T22:42:45.977Z,49.62
2022-08-03T22:46:06.817Z,49.96
2022-08-03T22:48:00.409Z,50.03
2022-08-03T22:50:31.772Z,49.84
2022-08-03T22:52:59.583Z,50.07
2022-08-03T22:55:27.069Z,49.57
2022-08-03T22:57:55.991Z,50.01
2022-08-03T23:00:23.749Z,49.76
2022-08-03T23:02:51.545Z,49.92
2022-08-03T23:06:01.320Z,50.12
2022-08-03T23:08:11.209Z,50.26
2022-08-03T23:10:38.520Z,50.35
2022-08-03T23:13:05.699Z,50.14
2022-08-03T23:15:32.993Z,50.40
2022-08-03T23:18:03.202Z,49.94
2022-08-03T23:20:30.318Z,50.15
2022-08-03T23:22:57.947Z,50.04
2022-08-03T23:25:25.311Z,49.90
2022-08-03T23:28:04.945Z,50.00
2022-08-03T23:30:34.760Z,49.88
2022-08-03T23:33:03.106Z,50.23
2022-08-03T23:36:29.637Z,49.99
2022-08-03T23:38:36.316Z,50.23
2022-08-03T23:41:05.112Z,50.33
2022-08-03T23:43:44.729Z,50.28
2022-08-03T23:46:19.864Z,50.33
2022-08-03T23:48:46.548Z,50.28
2022-08-03T23:51:42.045Z,50.17
2022-08-03T23:54:14.413Z,50.27
2022-08-03T23:57:28.627Z,50.22
